sensor_id;sensor_type;location;lat;lon;timestamp;pressure;altitude;pressure_sealevel;temperature;humidity
56182;BME280;51963;46.052;14.544;2023-07-09T00:02:16;98621.75;;;20.26;100.00
56182;BME280;51963;46.052;14.544;2023-07-09T00:04:44;98612.50;;;20.16;100.00
56182;BME280;51963;46.052;14.544;2023-07-09T00:07:27;98615.50;;;20.20;100.00
56182;BME280;51963;46.052;14.544;2023-07-09T00:09:55;98607.84;;;20.29;100.00
56182;BME280;51963;46.052;14.544;2023-07-09T00:12:21;98612.31;;;20.23;100.00
56182;BME280;51963;46.052;14.544;2023-07-09T00:14:47;98606.78;;;20.13;100.00
56182;BME280;51963;46.052;14.544;2023-07-09T00:19:51;98611.41;;;20.00;100.00
56182;BME280;51963;46.052;14.544;2023-07-09T00:22:18;98605.47;;;19.98;100.00
56182;BME280;51963;46.052;14.544;2023-07-09T00:24:48;98618.34;;;19.96;100.00
56182;BME280;51963;46.052;14.544;2023-07-09T00:27:20;98620.13;;;19.90;100.00
56182;BME280;51963;46.052;14.544;2023-07-09T00:29:47;98615.81;;;19.89;100.00
56182;BME280;51963;46.052;14.544;2023-07-09T00:32:14;98608.72;;;19.83;100.00
56182;BME280;51963;46.052;14.544;2023-07-09T00:34:50;98621.06;;;19.84;100.00
56182;BME280;51963;46.052;14.544;2023-07-09T00:37:19;98616.66;;;19.78;100.00
56182;BME280;51963;46.052;14.544;2023-07-09T00:39:47;98622.84;;;19.78;100.00
56182;BME280;51963;46.052;14.544;2023-07-09T00:42:20;98625.59;;;19.84;100.00
56182;BME280;51963;46.052;14.544;2023-07-09T00:44:50;98645.66;;;19.93;100.00
56182;BME280;51963;46.052;14.544;2023-07-09T00:47:42;98637.19;;;20.01;100.00
56182;BME280;51963;46.052;14.544;2023-07-09T00:50:19;98644.84;;;20.10;100.00
56182;BME280;51963;46.052;14.544;2023-07-09T00:52:52;98647.28;;;19.94;100.00
56182;BME280;51963;46.052;14.544;2023-07-09T00:55:24;98655.41;;;19.99;100.00
56182;BME280;51963;46.052;14.544;2023-07-09T00:57:53;98654.34;;;20.00;100.00
56182;BME280;51963;46.052;14.544;2023-07-09T01:00:29;98651.59;;;19.95;100.00
56182;BME280;51963;46.052;14.544;2023-07-09T01:02:58;98650.78;;;19.95;100.00
56182;BME280;51963;46.052;14.544;2023-07-09T01:05:24;98651.94;;;19.99;100.00
56182;BME280;51963;46.052;14.544;2023-07-09T01:07:51;98653.97;;;20.08;100.00
56182;BME280;51963;46.052;14.544;2023-07-09T01:10:18;98645.81;;;20.03;100.00
56182;BME280;51963;46.052;14.544;2023-07-09T01:12:46;98646.38;;;20.05;100.00
56182;BME280;51963;46.052;14.544;2023-07-09T01:15:14;98643.22;;;20.08;100.00
56182;BME280;51963;46.052;14.544;2023-07-09T01:17:40;98639.97;;;20.06;100.00
56182;BME280;51963;46.052;14.544;2023-07-09T01:20:15;98650.38;;;20.03;100.00
56182;BME280;51963;46.052;14.544;2023-07-09T01:22:42;98646.69;;;19.92;100.00
56182;BME280;51963;46.052;14.544;2023-07-09T01:25:08;98644.66;;;19.82;100.00
56182;BME280;51963;46.052;14.544;2023-07-09T01:27:44;98647.16;;;19.72;100.00
56182;BME280;51963;46.052;14.544;2023-07-09T01:30:38;98652.06;;;19.63;100.00
56182;BME280;51963;46.052;14.544;2023-07-09T01:33:07;98658.38;;;19.57;100.00
56182;BME280;51963;46.052;14.544;2023-07-09T01:35:37;98661.06;;;19.57;100.00
56182;BME280;51963;46.052;14.544;2023-07-09T01:38:07;98651.28;;;19.62;100.00
56182;BME280;51963;46.052;14.544;2023-07-09T01:40:34;98666.31;;;19.92;100.00
56182;BME280;51963;46.052;14.544;2023-07-09T01:43:02;98659.97;;;19.99;100.00
56182;BME280;51963;46.052;14.544;2023-07-09T01:45:35;98660.88;;;19.75;100.00
56182;BME280;51963;46.052;14.544;2023-07-09T01:48:05;98664.09;;;19.60;100.00
56182;BME280;51963;46.052;14.544;2023-07-09T01:50:32;98664.81;;;19.56;100.00
56182;BME280;51963;46.052;14.544;2023-07-09T01:52:58;98654.84;;;19.39;100.00
56182;BME280;51963;46.052;14.544;2023-07-09T01:55:24;98657.03;;;19.42;100.00
56182;BME280;51963;46.052;14.544;2023-07-09T01:57:50;98657.88;;;19.43;100.00
56182;BME280;51963;46.052;14.544;2023-07-09T02:00:20;98668.34;;;19.44;100.00
56182;BME280;51963;46.052;14.544;2023-07-09T02:02:48;98658.25;;;19.34;100.00
56182;BME280;51963;46.052;14.544;2023-07-09T02:05:16;98659.16;;;19.40;100.00
56182;BME280;51963;46.052;14.544;2023-07-09T02:07:44;98663.75;;;19.57;100.00
56182;BME280;51963;46.052;14.544;2023-07-09T02:10:11;98661.31;;;19.55;100.00
56182;BME280;51963;46.052;14.544;2023-07-09T02:12:37;98666.34;;;19.52;100.00
56182;BME280;51963;46.052;14.544;2023-07-09T02:15:03;98663.75;;;19.57;100.00
56182;BME280;51963;46.052;14.544;2023-07-09T02:17:30;98656.34;;;19.47;100.00
56182;BME280;51963;46.052;14.544;2023-07-09T02:19:58;98656.00;;;19.43;100.00
56182;BME280;51963;46.052;14.544;2023-07-09T02:22:26;98663.56;;;19.46;100.00
56182;BME280;51963;46.052;14.544;2023-07-09T02:24:52;98669.56;;;19.37;100.00
56182;BME280;51963;46.052;14.544;2023-07-09T02:27:19;98659.31;;;19.22;100.00
56182;BME280;51963;46.052;14.544;2023-07-09T02:29:46;98658.06;;;19.12;100.00
56182;BME280;51963;46.052;14.544;2023-07-09T02:32:21;98659.13;;;19.11;100.00
56182;BME280;51963;46.052;14.544;2023-07-09T02:34:47;98672.66;;;19.04;100.00
56182;BME280;51963;46.052;14.544;2023-07-09T02:37:17;98675.44;;;18.98;100.00
56182;BME280;51963;46.052;14.544;2023-07-09T02:39:44;98673.69;;;18.91;100.00
56182;BME280;51963;46.052;14.544;2023-07-09T02:42:11;98671.59;;;18.82;100.00
56182;BME280;51963;46.052;14.544;2023-07-09T02:44:38;98668.34;;;18.68;100.00
56182;BME280;51963;46.052;14.544;2023-07-09T02:47:04;98678.84;;;18.69;100.00
56182;BME280;51963;46.052;14.544;2023-07-09T02:49:30;98680.44;;;18.82;100.00
56182;BME280;51963;46.052;14.544;2023-07-09T02:52:00;98683.00;;;18.77;100.00
56182;BME280;51963;46.052;14.544;2023-07-09T02:54:27;98685.13;;;18.63;100.00
56182;BME280;51963;46.052;14.544;2023-07-09T02:56:53;98693.25;;;18.56;100.00
56182;BME280;51963;46.052;14.544;2023-07-09T02:59:18;98676.03;;;18.52;100.00
56182;BME280;51963;46.052;14.544;2023-07-09T03:01:45;98689.66;;;18.62;100.00
56182;BME280;51963;46.052;14.544;2023-07-09T03:04:14;98692.31;;;18.62;100.00
56182;BME280;51963;46.052;14.544;2023-07-09T03:06:39;98687.78;;;18.51;100.00
56182;BME280;51963;46.052;14.544;2023-07-09T03:09:06;98689.88;;;18.49;100.00
56182;BME280;51963;46.052;14.544;2023-07-09T03:11:33;98688.81;;;18.50;100.00
56182;BME280;51963;46.052;14.544;2023-07-09T03:14:01;98706.97;;;18.48;100.00
56182;BME280;51963;46.052;14.544;2023-07-09T03:16:29;98700.69;;;18.54;100.00
56182;BME280;51963;46.052;14.544;2023-07-09T03:18:55;98711.88;;;18.51;100.00
56182;BME280;51963;46.052;14.544;2023-07-09T03:21:22;98711.66;;;18.65;100.00
56182;BME280;51963;46.052;14.544;2023-07-09T03:23:50;98704.19;;;18.55;100.00
56182;BME280;51963;46.052;14.544;2023-07-09T03:26:17;98720.03;;;18.56;100.00
56182;BME280;51963;46.052;14.544;2023-07-09T03:28:42;98726.88;;;18.52;100.00
56182;BME280;51963;46.052;14.544;2023-07-09T03:31:08;98720.56;;;18.46;100.00
56182;BME280;51963;46.052;14.544;2023-07-09T03:33:34;98726.84;;;18.40;100.00
56182;BME280;51963;46.052;14.544;2023-07-09T03:36:03;98727.47;;;18.54;100.00
56182;BME280;51963;46.052;14.544;2023-07-09T03:38:30;98727.09;;;18.51;100.00
56182;BME280;51963;46.052;14.544;2023-07-09T03:40:56;98718.63;;;18.42;100.00
56182;BME280;51963;46.052;14.544;2023-07-09T03:43:23;98717.09;;;18.46;100.00
56182;BME280;51963;46.052;14.544;2023-07-09T03:45:49;98723.13;;;18.41;100.00
56182;BME280;51963;46.052;14.544;2023-07-09T03:48:16;98726.06;;;18.40;100.00
56182;BME280;51963;46.052;14.544;2023-07-09T03:50:46;98729.31;;;18.42;100.00
56182;BME280;51963;46.052;14.544;2023-07-09T03:53:13;98741.06;;;18.41;100.00
56182;BME280;51963;46.052;14.544;2023-07-09T03:55:39;98736.19;;;18.38;100.00
56182;BME280;51963;46.052;14.544;2023-07-09T03:58:05;98736.06;;;18.32;100.00
56182;BME280;51963;46.052;14.544;2023-07-09T04:00:32;98738.41;;;18.41;100.00
56182;BME280;51963;46.052;14.544;2023-07-09T04:02:58;98733.75;;;18.48;100.00
56182;BME280;51963;46.052;14.544;2023-07-09T04:05:24;98742.38;;;18.50;100.00
56182;BME280;51963;46.052;14.544;2023-07-09T04:07:50;98738.72;;;18.44;100.00
56182;BME280;51963;46.052;14.544;2023-07-09T04:10:19;98705.97;;;18.18;100.00
56182;BME280;51963;46.052;14.544;2023-07-09T04:12:45;98738.84;;;18.38;100.00
56182;BME280;51963;46.052;14.544;2023-07-09T04:15:13;98735.00;;;18.33;100.00
56182;BME280;51963;46.052;14.544;2023-07-09T04:17:40;98741.75;;;18.36;100.00
56182;BME280;51963;46.052;14.544;2023-07-09T04:20:07;98743.03;;;18.33;100.00
56182;BME280;51963;46.052;14.544;2023-07-09T04:22:35;98744.53;;;18.41;100.00
56182;BME280;51963;46.052;14.544;2023-07-09T04:25:01;98732.59;;;18.44;100.00
56182;BME280;51963;46.052;14.544;2023-07-09T04:27:30;98744.13;;;18.56;100.00
56182;BME280;51963;46.052;14.544;2023-07-09T04:29:56;98743.44;;;18.61;100.00
56182;BME280;51963;46.052;14.544;2023-07-09T04:32:23;98736.47;;;18.60;100.00
56182;BME280;51963;46.052;14.544;2023-07-09T04:34:48;98753.72;;;18.88;100.00
56182;BME280;51963;46.052;14.544;2023-07-09T04:37:15;98751.38;;;19.15;100.00
56182;BME280;51963;46.052;14.544;2023-07-09T04:39:44;98749.41;;;19.23;100.00
56182;BME280;51963;46.052;14.544;2023-07-09T04:42:12;98746.44;;;19.48;100.00
56182;BME280;51963;46.052;14.544;2023-07-09T04:44:38;98760.81;;;19.42;100.00
56182;BME280;51963;46.052;14.544;2023-07-09T04:47:08;98742.03;;;19.42;100.00
56182;BME280;51963;46.052;14.544;2023-07-09T04:49:34;98751.28;;;19.63;100.00
56182;BME280;51963;46.052;14.544;2023-07-09T04:52:00;98755.19;;;19.55;100.00
56182;BME280;51963;46.052;14.544;2023-07-09T04:54:26;98757.13;;;19.60;100.00
56182;BME280;51963;46.052;14.544;2023-07-09T04:56:52;98765.00;;;19.78;100.00
56182;BME280;51963;46.052;14.544;2023-07-09T04:59:19;98774.13;;;19.89;100.00
56182;BME280;51963;46.052;14.544;2023-07-09T05:01:47;98767.72;;;20.07;100.00
56182;BME280;51963;46.052;14.544;2023-07-09T05:04:13;98768.84;;;19.83;100.00
56182;BME280;51963;46.052;14.544;2023-07-09T05:06:38;98770.47;;;19.84;100.00
56182;BME280;51963;46.052;14.544;2023-07-09T05:09:05;98777.72;;;19.83;100.00
56182;BME280;51963;46.052;14.544;2023-07-09T05:11:34;98779.81;;;19.93;100.00
56182;BME280;51963;46.052;14.544;2023-07-09T05:14:00;98767.50;;;20.09;100.00
56182;BME280;51963;46.052;14.544;2023-07-09T05:16:26;98766.44;;;20.10;100.00
56182;BME280;51963;46.052;14.544;2023-07-09T05:18:52;98766.88;;;20.19;100.00
56182;BME280;51963;46.052;14.544;2023-07-09T05:21:18;98779.88;;;20.27;100.00
56182;BME280;51963;46.052;14.544;2023-07-09T05:23:43;98776.69;;;20.42;100.00
56182;BME280;51963;46.052;14.544;2023-07-09T05:26:11;98784.16;;;20.57;100.00
56182;BME280;51963;46.052;14.544;2023-07-09T05:28:37;98774.91;;;20.82;100.00
56182;BME280;51963;46.052;14.544;2023-07-09T05:31:04;98765.78;;;21.00;100.00
56182;BME280;51963;46.052;14.544;2023-07-09T05:33:30;98773.19;;;21.10;100.00
56182;BME280;51963;46.052;14.544;2023-07-09T05:35:56;98765.78;;;21.00;100.00
56182;BME280;51963;46.052;14.544;2023-07-09T05:38:22;98783.28;;;21.03;100.00
56182;BME280;51963;46.052;14.544;2023-07-09T05:40:48;98773.09;;;21.22;100.00
56182;BME280;51963;46.052;14.544;2023-07-09T05:43:14;98780.38;;;21.44;100.00
56182;BME280;51963;46.052;14.544;2023-07-09T05:45:40;98781.31;;;21.54;100.00
56182;BME280;51963;46.052;14.544;2023-07-09T05:48:06;98781.09;;;21.78;100.00
56182;BME280;51963;46.052;14.544;2023-07-09T05:50:34;98783.56;;;22.07;100.00
56182;BME280;51963;46.052;14.544;2023-07-09T05:53:00;98782.25;;;22.10;100.00
56182;BME280;51963;46.052;14.544;2023-07-09T05:55:26;98780.25;;;22.27;100.00
56182;BME280;51963;46.052;14.544;2023-07-09T05:57:53;98782.34;;;22.20;100.00
56182;BME280;51963;46.052;14.544;2023-07-09T06:00:19;98783.06;;;22.10;100.00
56182;BME280;51963;46.052;14.544;2023-07-09T06:02:45;98784.75;;;21.94;100.00
56182;BME280;51963;46.052;14.544;2023-07-09T06:05:11;98790.59;;;22.08;100.00
56182;BME280;51963;46.052;14.544;2023-07-09T06:07:38;98792.16;;;22.04;100.00
56182;BME280;51963;46.052;14.544;2023-07-09T06:10:05;98784.75;;;21.94;100.00
56182;BME280;51963;46.052;14.544;2023-07-09T06:12:31;98786.59;;;21.89;100.00
56182;BME280;51963;46.052;14.544;2023-07-09T06:14:57;98786.78;;;22.04;100.00
56182;BME280;51963;46.052;14.544;2023-07-09T06:17:23;98783.47;;;21.97;100.00
56182;BME280;51963;46.052;14.544;2023-07-09T06:19:51;98789.25;;;22.11;100.00
56182;BME280;51963;46.052;14.544;2023-07-09T06:22:16;98796.88;;;22.19;100.00
56182;BME280;51963;46.052;14.544;2023-07-09T06:24:42;98801.69;;;22.17;100.00
56182;BME280;51963;46.052;14.544;2023-07-09T06:27:09;98795.84;;;22.25;100.00
56182;BME280;51963;46.052;14.544;2023-07-09T06:29:35;98802.59;;;22.50;100.00
56182;BME280;51963;46.052;14.544;2023-07-09T06:32:01;98794.59;;;22.61;100.00
56182;BME280;51963;46.052;14.544;2023-07-09T06:34:26;98770.84;;;22.58;100.00
56182;BME280;51963;46.052;14.544;2023-07-09T06:36:56;98805.25;;;22.78;100.00
56182;BME280;51963;46.052;14.544;2023-07-09T06:43:22;98795.72;;;23.46;100.00
56182;BME280;51963;46.052;14.544;2023-07-09T06:45:53;98800.63;;;23.54;100.00
56182;BME280;51963;46.052;14.544;2023-07-09T06:48:20;98794.44;;;23.58;100.00
56182;BME280;51963;46.052;14.544;2023-07-09T06:50:46;98790.69;;;23.65;100.00
56182;BME280;51963;46.052;14.544;2023-07-09T06:53:18;98781.53;;;23.66;100.00
56182;BME280;51963;46.052;14.544;2023-07-09T06:55:46;98788.59;;;23.82;100.00
56182;BME280;51963;46.052;14.544;2023-07-09T06:58:13;98785.94;;;23.93;100.00
56182;BME280;51963;46.052;14.544;2023-07-09T07:00:39;98792.41;;;23.92;99.49
56182;BME280;51963;46.052;14.544;2023-07-09T07:03:05;98783.28;;;24.03;100.00
56182;BME280;51963;46.052;14.544;2023-07-09T07:05:35;98795.25;;;24.38;97.53
56182;BME280;51963;46.052;14.544;2023-07-09T07:08:04;98794.75;;;24.78;95.99
56182;BME280;51963;46.052;14.544;2023-07-09T07:10:32;98790.91;;;24.42;96.06
56182;BME280;51963;46.052;14.544;2023-07-09T07:12:58;98778.44;;;25.24;91.50
56182;BME280;51963;46.052;14.544;2023-07-09T07:15:29;98790.63;;;25.32;89.18
56182;BME280;51963;46.052;14.544;2023-07-09T07:17:54;98793.50;;;25.61;88.28
56182;BME280;51963;46.052;14.544;2023-07-09T07:20:20;98778.88;;;25.62;88.44
56182;BME280;51963;46.052;14.544;2023-07-09T07:22:46;98777.44;;;26.31;82.63
56182;BME280;51963;46.052;14.544;2023-07-09T07:25:12;98789.31;;;26.40;83.49
56182;BME280;51963;46.052;14.544;2023-07-09T07:27:38;98789.25;;;26.85;80.15
56182;BME280;51963;46.052;14.544;2023-07-09T07:30:05;98788.88;;;26.97;80.04
56182;BME280;51963;46.052;14.544;2023-07-09T07:32:38;98791.59;;;26.97;80.28
56182;BME280;51963;46.052;14.544;2023-07-09T07:35:07;98781.88;;;26.16;85.94
56182;BME280;51963;46.052;14.544;2023-07-09T07:37:35;98773.53;;;26.47;85.84
56182;BME280;51963;46.052;14.544;2023-07-09T07:40:01;98777.38;;;27.59;79.81
56182;BME280;51963;46.052;14.544;2023-07-09T07:42:29;98767.97;;;28.14;76.74
56182;BME280;51963;46.052;14.544;2023-07-09T07:44:55;98761.31;;;28.01;77.41
56182;BME280;51963;46.052;14.544;2023-07-09T07:47:21;98774.78;;;27.92;79.20
56182;BME280;51963;46.052;14.544;2023-07-09T07:49:46;98772.00;;;28.36;73.92
56182;BME280;51963;46.052;14.544;2023-07-09T07:52:12;98775.06;;;28.48;72.55
56182;BME280;51963;46.052;14.544;2023-07-09T07:54:38;98756.19;;;28.38;72.81
56182;BME280;51963;46.052;14.544;2023-07-09T07:57:04;98773.56;;;28.56;73.34
56182;BME280;51963;46.052;14.544;2023-07-09T07:59:31;98774.03;;;28.44;72.29
56182;BME280;51963;46.052;14.544;2023-07-09T08:02:01;98757.03;;;28.19;73.26
56182;BME280;51963;46.052;14.544;2023-07-09T08:04:26;98750.63;;;28.10;75.72
56182;BME280;51963;46.052;14.544;2023-07-09T08:06:52;98772.25;;;28.53;73.27
56182;BME280;51963;46.052;14.544;2023-07-09T08:09:19;98767.94;;;28.86;71.68
56182;BME280;51963;46.052;14.544;2023-07-09T08:11:47;98765.13;;;28.91;71.26
56182;BME280;51963;46.052;14.544;2023-07-09T08:14:14;98769.56;;;29.01;72.94
56182;BME280;51963;46.052;14.544;2023-07-09T08:16:40;98773.53;;;29.78;68.38
56182;BME280;51963;46.052;14.544;2023-07-09T08:19:06;98759.22;;;29.59;67.04
56182;BME280;51963;46.052;14.544;2023-07-09T08:21:32;98770.28;;;29.06;73.34
56182;BME280;51963;46.052;14.544;2023-07-09T08:23:58;98770.59;;;29.75;67.64
56182;BME280;51963;46.052;14.544;2023-07-09T08:26:24;98770.63;;;29.97;67.63
56182;BME280;51963;46.052;14.544;2023-07-09T08:28:50;98775.53;;;30.23;65.63
56182;BME280;51963;46.052;14.544;2023-07-09T08:31:19;98763.06;;;29.94;66.97
56182;BME280;51963;46.052;14.544;2023-07-09T08:33:45;98762.53;;;29.69;66.56
56182;BME280;51963;46.052;14.544;2023-07-09T08:36:10;98765.94;;;30.49;65.45
56182;BME280;51963;46.052;14.544;2023-07-09T08:38:38;98764.50;;;30.28;64.41
56182;BME280;51963;46.052;14.544;2023-07-09T08:48:50;98763.03;;;30.99;58.81
56182;BME280;51963;46.052;14.544;2023-07-09T08:51:28;98753.38;;;30.93;60.62
56182;BME280;51963;46.052;14.544;2023-07-09T08:53:58;98760.66;;;31.47;56.18
56182;BME280;51963;46.052;14.544;2023-07-09T08:56:26;98755.78;;;31.26;58.61
56182;BME280;51963;46.052;14.544;2023-07-09T08:58:54;98747.03;;;30.52;62.48
56182;BME280;51963;46.052;14.544;2023-07-09T09:01:44;98748.28;;;31.50;57.25
56182;BME280;51963;46.052;14.544;2023-07-09T09:04:34;98745.19;;;32.00;55.64
56182;BME280;51963;46.052;14.544;2023-07-09T09:09:43;98746.13;;;31.78;56.13
56182;BME280;51963;46.052;14.544;2023-07-09T09:12:16;98752.13;;;30.68;58.66
56182;BME280;51963;46.052;14.544;2023-07-09T09:14:49;98737.19;;;30.65;61.00
56182;BME280;51963;46.052;14.544;2023-07-09T09:17:19;98746.38;;;31.50;59.64
56182;BME280;51963;46.052;14.544;2023-07-09T09:19:55;98736.09;;;31.73;59.69
56182;BME280;51963;46.052;14.544;2023-07-09T09:22:28;98742.28;;;32.41;61.06
56182;BME280;51963;46.052;14.544;2023-07-09T09:25:33;98741.66;;;31.33;60.09
56182;BME280;51963;46.052;14.544;2023-07-09T09:28:00;98734.13;;;32.80;55.44
56182;BME280;51963;46.052;14.544;2023-07-09T09:30:27;98743.44;;;32.78;54.36
56182;BME280;51963;46.052;14.544;2023-07-09T09:32:55;98740.16;;;32.46;55.21
56182;BME280;51963;46.052;14.544;2023-07-09T09:35:30;98743.16;;;32.80;54.45
56182;BME280;51963;46.052;14.544;2023-07-09T09:38:19;98737.06;;;32.57;55.89
56182;BME280;51963;46.052;14.544;2023-07-09T09:40:45;98735.75;;;32.72;55.02
56182;BME280;51963;46.052;14.544;2023-07-09T09:43:14;98741.28;;;33.92;51.70
56182;BME280;51963;46.052;14.544;2023-07-09T09:45:48;98733.81;;;33.20;53.01
56182;BME280;51963;46.052;14.544;2023-07-09T09:48:29;98747.16;;;32.91;52.42
56182;BME280;51963;46.052;14.544;2023-07-09T09:50:57;98736.69;;;32.94;53.20
56182;BME280;51963;46.052;14.544;2023-07-09T09:53:28;98736.13;;;33.09;52.53
56182;BME280;51963;46.052;14.544;2023-07-09T09:55:55;98738.00;;;33.77;50.18
56182;BME280;51963;46.052;14.544;2023-07-09T09:58:27;98742.09;;;33.11;51.93
56182;BME280;51963;46.052;14.544;2023-07-09T10:00:56;98736.13;;;33.69;54.94
56182;BME280;51963;46.052;14.544;2023-07-09T10:03:33;98736.06;;;34.54;48.27
56182;BME280;51963;46.052;14.544;2023-07-09T10:06:12;98738.97;;;34.70;47.45
56182;BME280;51963;46.052;14.544;2023-07-09T10:08:52;98747.31;;;34.06;48.58
56182;BME280;51963;46.052;14.544;2023-07-09T10:14:04;98736.47;;;34.10;48.50
56182;BME280;51963;46.052;14.544;2023-07-09T10:16:38;98739.28;;;35.02;46.30
56182;BME280;51963;46.052;14.544;2023-07-09T10:21:51;98728.81;;;34.83;46.13
56182;BME280;51963;46.052;14.544;2023-07-09T10:27:13;98712.69;;;35.44;46.55
56182;BME280;51963;46.052;14.544;2023-07-09T10:30:01;98725.13;;;35.66;43.92
56182;BME280;51963;46.052;14.544;2023-07-09T10:40:45;98717.84;;;35.33;45.93
56182;BME280;51963;46.052;14.544;2023-07-09T10:43:18;98720.25;;;36.45;37.73
56182;BME280;51963;46.052;14.544;2023-07-09T10:45:49;98715.78;;;35.30;39.92
56182;BME280;51963;46.052;14.544;2023-07-09T10:48:35;98718.09;;;36.50;40.19
56182;BME280;51963;46.052;14.544;2023-07-09T10:51:03;98714.63;;;37.02;36.71
56182;BME280;51963;46.052;14.544;2023-07-09T10:53:38;98708.22;;;37.30;36.57
56182;BME280;51963;46.052;14.544;2023-07-09T10:56:12;98713.03;;;36.68;37.79
56182;BME280;51963;46.052;14.544;2023-07-09T11:01:45;98705.31;;;38.60;34.84
56182;BME280;51963;46.052;14.544;2023-07-09T11:04:44;98712.19;;;36.36;40.02
56182;BME280;51963;46.052;14.544;2023-07-09T11:07:14;98701.78;;;37.97;35.92
56182;BME280;51963;46.052;14.544;2023-07-09T11:09:46;98706.69;;;38.27;35.35
56182;BME280;51963;46.052;14.544;2023-07-09T11:15:18;98708.47;;;39.63;32.51
56182;BME280;51963;46.052;14.544;2023-07-09T11:17:46;98695.53;;;39.40;32.21
56182;BME280;51963;46.052;14.544;2023-07-09T11:20:28;98701.41;;;39.11;33.21
56182;BME280;51963;46.052;14.544;2023-07-09T11:23:21;98678.91;;;38.86;32.67
56182;BME280;51963;46.052;14.544;2023-07-09T11:26:15;98698.38;;;39.20;33.31
56182;BME280;51963;46.052;14.544;2023-07-09T11:29:05;98704.94;;;40.30;31.35
56182;BME280;51963;46.052;14.544;2023-07-09T11:31:41;98695.53;;;40.04;32.27
56182;BME280;51963;46.052;14.544;2023-07-09T11:36:34;98690.34;;;40.37;30.19
56182;BME280;51963;46.052;14.544;2023-07-09T11:39:01;98695.81;;;41.24;29.29
56182;BME280;51963;46.052;14.544;2023-07-09T11:41:40;98675.88;;;41.11;28.60
56182;BME280;51963;46.052;14.544;2023-07-09T11:44:16;98675.91;;;40.58;30.32
56182;BME280;51963;46.052;14.544;2023-07-09T11:49:32;98691.03;;;41.20;28.60
56182;BME280;51963;46.052;14.544;2023-07-09T11:52:03;98665.75;;;41.33;29.37
56182;BME280;51963;46.052;14.544;2023-07-09T11:54:34;98693.19;;;40.93;29.89
56182;BME280;51963;46.052;14.544;2023-07-09T11:57:02;98676.09;;;41.43;28.51
56182;BME280;51963;46.052;14.544;2023-07-09T11:59:28;98668.28;;;41.71;27.16
56182;BME280;51963;46.052;14.544;2023-07-09T12:01:54;98667.56;;;41.96;27.43
56182;BME280;51963;46.052;14.544;2023-07-09T12:04:31;98671.66;;;42.56;26.25
56182;BME280;51963;46.052;14.544;2023-07-09T12:07:01;98670.78;;;42.05;27.50
56182;BME280;51963;46.052;14.544;2023-07-09T12:09:33;98663.41;;;41.46;27.05
56182;BME280;51963;46.052;14.544;2023-07-09T12:12:15;98664.63;;;39.99;29.66
56182;BME280;51963;46.052;14.544;2023-07-09T12:14:41;98660.97;;;40.70;32.08
56182;BME280;51963;46.052;14.544;2023-07-09T12:17:09;98661.16;;;41.66;30.47
56182;BME280;51963;46.052;14.544;2023-07-09T12:19:35;98658.97;;;42.66;29.64
56182;BME280;51963;46.052;14.544;2023-07-09T12:22:01;98653.34;;;43.17;25.31
56182;BME280;51963;46.052;14.544;2023-07-09T12:24:29;98652.56;;;43.13;24.53
56182;BME280;51963;46.052;14.544;2023-07-09T12:27:00;98646.19;;;43.08;24.93
56182;BME280;51963;46.052;14.544;2023-07-09T12:29:28;98645.31;;;41.74;26.92
56182;BME280;51963;46.052;14.544;2023-07-09T12:31:58;98636.84;;;40.74;28.30
56182;BME280;51963;46.052;14.544;2023-07-09T12:34:25;98645.41;;;42.25;26.25
56182;BME280;51963;46.052;14.544;2023-07-09T12:36:51;98639.75;;;43.41;24.17
56182;BME280;51963;46.052;14.544;2023-07-09T12:39:24;98637.47;;;42.08;25.86
56182;BME280;51963;46.052;14.544;2023-07-09T12:41:58;98623.84;;;41.56;26.92
56182;BME280;51963;46.052;14.544;2023-07-09T12:44:25;98632.75;;;42.67;24.97
56182;BME280;51963;46.052;14.544;2023-07-09T12:46:52;98635.72;;;43.56;24.24
56182;BME280;51963;46.052;14.544;2023-07-09T12:49:30;98624.00;;;42.21;23.12
56182;BME280;51963;46.052;14.544;2023-07-09T12:52:00;98628.00;;;42.71;23.84
56182;BME280;51963;46.052;14.544;2023-07-09T12:54:29;98622.22;;;43.47;24.24
56182;BME280;51963;46.052;14.544;2023-07-09T12:56:56;98633.66;;;43.75;22.15
56182;BME280;51963;46.052;14.544;2023-07-09T12:59:26;98630.97;;;43.49;23.04
56182;BME280;51963;46.052;14.544;2023-07-09T13:02:14;98629.94;;;42.78;23.89
56182;BME280;51963;46.052;14.544;2023-07-09T13:04:40;98628.00;;;42.86;24.21
56182;BME280;51963;46.052;14.544;2023-07-09T13:09:54;98623.25;;;43.86;20.66
56182;BME280;51963;46.052;14.544;2023-07-09T13:12:31;98615.31;;;42.48;22.81
56182;BME280;51963;46.052;14.544;2023-07-09T13:15:00;98615.00;;;43.64;20.72
56182;BME280;51963;46.052;14.544;2023-07-09T13:17:31;98614.75;;;41.63;22.28
56182;BME280;51963;46.052;14.544;2023-07-09T13:19:57;98626.13;;;43.72;21.65
56182;BME280;51963;46.052;14.544;2023-07-09T13:22:23;98615.00;;;43.61;21.10
56182;BME280;51963;46.052;14.544;2023-07-09T13:24:50;98623.50;;;45.01;21.05
56182;BME280;51963;46.052;14.544;2023-07-09T13:27:16;98614.91;;;44.39;22.18
56182;BME280;51963;46.052;14.544;2023-07-09T13:29:42;98610.56;;;44.34;22.06
56182;BME280;51963;46.052;14.544;2023-07-09T13:32:10;98614.03;;;43.96;21.01
56182;BME280;51963;46.052;14.544;2023-07-09T13:34:36;98602.78;;;43.40;21.37
56182;BME280;51963;46.052;14.544;2023-07-09T13:37:13;98600.13;;;43.07;22.18
56182;BME280;51963;46.052;14.544;2023-07-09T13:39:42;98609.69;;;42.99;21.11
56182;BME280;51963;46.052;14.544;2023-07-09T13:42:16;98610.81;;;43.20;21.88
56182;BME280;51963;46.052;14.544;2023-07-09T13:44:44;98611.63;;;43.06;21.86